Time;durP1;ratioP1;P1;durP2;ratioP2;P2;SDS_P1;SDS_P2;PMS_P1;PMS_P2;Temp;Humidity;BMP_temperature;BMP_pressure;BME280_temperature;BME280_humidity;BME280_pressure;Samples;Min_cycle;Max_cycle;Signal;HPM_P1;HPM_P2
2023/04/15 00:00:19;;;;;;;4.07;3.00;;;23.20;59.10;;;;;;4841000;29;20455;-66
2023/04/15 00:02:47;;;;;;;3.75;2.85;;;23.10;59.10;;;;;;4840044;29;20470;-66
2023/04/15 00:05:13;;;;;;;5.13;3.25;;;23.30;59.10;;;;;;4838034;29;20455;-65
2023/04/15 00:07:39;;;;;;;5.15;3.45;;;23.20;59.00;;;;;;4838523;29;20094;-64
2023/04/15 00:10:06;;;;;;;6.25;2.85;;;23.20;59.10;;;;;;4838423;29;20624;-65
2023/04/15 00:12:32;;;;;;;3.13;2.83;;;23.20;59.30;;;;;;4838480;29;20081;-65
2023/04/15 00:14:58;;;;;;;4.38;3.17;;;23.00;59.60;;;;;;4838172;29;20082;-65
2023/04/15 00:17:24;;;;;;;3.97;3.03;;;23.10;59.80;;;;;;4838493;29;20061;-65
2023/04/15 00:19:50;;;;;;;3.33;2.58;;;23.10;59.60;;;;;;4838225;29;20578;-65
2023/04/15 00:22:16;;;;;;;3.65;2.95;;;23.20;59.40;;;;;;4838131;29;20117;-65
2023/04/15 00:24:43;;;;;;;6.30;3.75;;;23.20;59.30;;;;;;4837991;29;20537;-67
2023/04/15 00:27:09;;;;;;;3.55;2.50;;;23.30;59.40;;;;;;4838196;29;20048;-65
2023/04/15 00:29:35;;;;;;;4.63;3.05;;;23.20;59.30;;;;;;4838240;29;20049;-66
2023/04/15 00:32:01;;;;;;;3.70;2.67;;;23.20;59.40;;;;;;4823158;29;20058;-65
2023/04/15 00:34:27;;;;;;;4.53;2.80;;;23.20;59.40;;;;;;4838321;29;20413;-65
2023/04/15 00:36:53;;;;;;;2.88;2.35;;;23.10;59.40;;;;;;4839817;29;20137;-65
2023/04/15 00:39:20;;;;;;;2.78;2.42;;;23.10;59.40;;;;;;4840675;29;20094;-65
2023/04/15 00:41:47;;;;;;;4.80;3.10;;;23.20;59.30;;;;;;4839479;29;20038;-65
2023/04/15 00:44:13;;;;;;;5.25;3.30;;;23.20;59.30;;;;;;4839095;29;20078;-65
2023/04/15 00:46:40;;;;;;;4.30;2.97;;;23.10;59.20;;;;;;4840353;29;20045;-65
2023/04/15 00:49:06;;;;;;;5.00;3.20;;;23.10;59.30;;;;;;4840377;29;20057;-65
2023/04/15 00:51:35;;;;;;;2.55;2.15;;;23.00;59.10;;;;;;4840363;29;20049;-65
2023/04/15 00:54:05;;;;;;;4.85;3.38;;;23.00;59.10;;;;;;4838957;29;20101;-65
2023/04/15 00:56:35;;;;;;;4.03;3.55;;;23.20;59.30;;;;;;4840213;29;20514;-65
2023/04/15 00:59:01;;;;;;;4.82;3.08;;;23.20;59.40;;;;;;4838977;29;20141;-65
2023/04/15 01:01:28;;;;;;;4.22;2.25;;;23.10;59.30;;;;;;4840383;29;20153;-65
2023/04/15 01:03:59;;;;;;;4.93;2.58;;;23.10;59.30;;;;;;4847764;29;20069;-65
2023/04/15 01:06:27;;;;;;;4.03;2.97;;;23.20;59.30;;;;;;4858403;29;20058;-65
2023/04/15 01:08:54;;;;;;;3.63;2.53;;;23.20;59.20;;;;;;4857509;29;20044;-64
2023/04/15 01:11:22;;;;;;;2.78;2.58;;;23.30;59.30;;;;;;4859046;29;20045;-65
2023/04/15 01:13:50;;;;;;;4.60;2.55;;;23.20;59.10;;;;;;4858743;29;20045;-65
2023/04/15 01:16:18;;;;;;;3.50;2.80;;;23.20;59.10;;;;;;4857727;29;20042;-64
2023/04/15 01:18:45;;;;;;;3.97;3.30;;;23.10;59.10;;;;;;4862371;29;20844;-66
2023/04/15 01:21:11;;;;;;;4.85;3.08;;;23.20;59.10;;;;;;4860893;29;20037;-66
2023/04/15 01:23:38;;;;;;;4.10;3.33;;;23.20;59.00;;;;;;4862549;29;20033;-65
2023/04/15 01:26:09;;;;;;;4.05;3.65;;;23.20;59.10;;;;;;4860844;29;20422;-65
2023/04/15 01:28:37;;;;;;;5.72;3.60;;;23.20;59.10;;;;;;4861151;29;20041;-65
2023/04/15 01:31:12;;;;;;;5.75;3.97;;;23.20;59.40;;;;;;4840989;29;20129;-65
2023/04/15 01:33:39;;;;;;;5.25;3.47;;;23.00;59.70;;;;;;4841180;29;20094;-65
2023/04/15 01:36:24;;;;;;;5.13;3.88;;;22.90;60.00;;;;;;4841340;29;20056;-65
2023/04/15 01:38:53;;;;;;;5.32;3.80;;;22.90;60.50;;;;;;4841413;29;20049;-65
2023/04/15 01:41:27;;;;;;;8.02;3.90;;;22.70;60.60;;;;;;4825860;29;20030;-65
2023/04/15 01:43:54;;;;;;;4.85;3.78;;;22.70;60.90;;;;;;4825461;29;20057;-66
2023/04/15 01:46:20;;;;;;;5.50;3.50;;;22.60;61.20;;;;;;4840562;29;20096;-65
2023/04/15 01:48:46;;;;;;;5.72;3.33;;;22.50;61.50;;;;;;4840963;29;20106;-65
2023/04/15 01:51:13;;;;;;;6.00;4.13;;;22.60;61.40;;;;;;4840583;29;20042;-65
2023/04/15 01:53:39;;;;;;;5.65;3.35;;;22.50;61.40;;;;;;4841040;29;20121;-65
2023/04/15 01:56:06;;;;;;;4.65;3.50;;;22.60;61.40;;;;;;4840545;29;20058;-66
2023/04/15 01:58:32;;;;;;;5.38;3.88;;;22.60;61.10;;;;;;4840698;29;20030;-66
2023/04/15 02:00:59;;;;;;;5.53;3.65;;;22.70;60.90;;;;;;4841799;29;20141;-64
2023/04/15 02:03:26;;;;;;;6.95;4.50;;;22.70;60.80;;;;;;4861574;29;20108;-65
2023/04/15 02:05:52;;;;;;;4.78;3.92;;;22.70;60.70;;;;;;4859938;29;20140;-65
2023/04/15 02:08:18;;;;;;;4.75;3.80;;;22.70;60.90;;;;;;4861299;29;20462;-65
2023/04/15 02:10:44;;;;;;;5.28;3.90;;;22.60;61.10;;;;;;4861450;29;20052;-65
2023/04/15 02:13:10;;;;;;;6.60;4.55;;;22.50;61.30;;;;;;4859488;29;20045;-65
2023/04/15 02:15:36;;;;;;;4.50;3.58;;;22.60;61.40;;;;;;4861269;29;20493;-66
2023/04/15 02:18:03;;;;;;;6.93;4.10;;;22.50;61.30;;;;;;4859971;29;20168;-65
2023/04/15 02:20:29;;;;;;;3.97;3.60;;;22.60;61.10;;;;;;4861204;29;20053;-65
2023/04/15 02:22:57;;;;;;;4.90;2.97;;;22.70;61.20;;;;;;4859932;29;20034;-64
2023/04/15 02:25:23;;;;;;;4.63;3.40;;;22.60;60.90;;;;;;4841372;29;20600;-65
2023/04/15 02:27:49;;;;;;;4.60;3.30;;;22.60;60.50;;;;;;4840272;29;20105;-65
2023/04/15 02:30:16;;;;;;;6.13;3.90;;;22.80;60.30;;;;;;4841286;29;20046;-65
2023/04/15 02:32:43;;;;;;;4.05;3.60;;;22.70;60.20;;;;;;4842447;29;20045;-65
2023/04/15 02:35:10;;;;;;;4.55;3.58;;;22.90;60.20;;;;;;4841180;29;20186;-65
2023/04/15 02:37:42;;;;;;;8.27;4.13;;;22.80;60.20;;;;;;4825942;29;20440;-65
2023/04/15 02:40:13;;;;;;;4.47;3.60;;;22.70;60.10;;;;;;4841183;29;20046;-65
2023/04/15 02:42:40;;;;;;;4.18;3.75;;;22.90;60.00;;;;;;4841144;29;20408;-66
2023/04/15 02:45:11;;;;;;;9.20;4.20;;;22.90;59.90;;;;;;4841072;29;20052;-65
2023/04/15 02:47:40;;;;;;;5.45;4.43;;;23.00;59.80;;;;;;4840868;29;20049;-65
2023/04/15 02:50:11;;;;;;;4.70;4.10;;;22.90;59.60;;;;;;4824771;29;20045;-65
2023/04/15 02:52:42;;;;;;;5.38;4.07;;;23.00;59.80;;;;;;4825882;29;20033;-65
2023/04/15 02:55:09;;;;;;;6.18;3.00;;;23.00;59.60;;;;;;4840808;29;20818;-64
2023/04/15 02:57:37;;;;;;;5.55;3.38;;;22.80;59.50;;;;;;4828819;29;20098;-65
2023/04/15 03:00:08;;;;;;;6.65;4.50;;;22.90;59.40;;;;;;4842069;29;20410;-65
2023/04/15 03:02:37;;;;;;;7.00;4.93;;;22.90;59.50;;;;;;4840964;29;20038;-65
2023/04/15 03:05:05;;;;;;;7.05;4.93;;;22.90;59.50;;;;;;4840783;29;20041;-64
2023/04/15 03:07:31;;;;;;;9.68;5.65;;;22.90;59.60;;;;;;4840555;29;20046;-65
2023/04/15 03:09:58;;;;;;;7.65;5.50;;;22.80;59.40;;;;;;4840861;29;20137;-65
2023/04/15 03:12:25;;;;;;;7.00;5.75;;;22.80;59.90;;;;;;4840526;29;20046;-65
2023/04/15 03:14:54;;;;;;;10.05;5.70;;;22.60;60.30;;;;;;4840617;29;20042;-65
2023/04/15 03:17:25;;;;;;;9.45;5.70;;;22.60;60.60;;;;;;4840276;29;20077;-65
2023/04/15 03:19:51;;;;;;;7.05;5.10;;;22.60;60.80;;;;;;4840363;29;20065;-65
2023/04/15 03:22:17;;;;;;;9.20;5.80;;;22.50;61.00;;;;;;4840475;29;20038;-65
2023/04/15 03:24:44;;;;;;;9.23;4.75;;;22.40;61.10;;;;;;4840464;29;20048;-65
2023/04/15 03:27:10;;;;;;;6.97;4.68;;;22.30;61.40;;;;;;4839971;29;20399;-65
2023/04/15 03:29:36;;;;;;;6.30;4.82;;;22.30;61.40;;;;;;4841627;29;20125;-65
2023/04/15 03:32:03;;;;;;;7.88;5.30;;;22.60;61.30;;;;;;4839945;29;20117;-65
2023/04/15 03:34:32;;;;;;;7.00;5.18;;;22.40;61.10;;;;;;4825490;29;20522;-65
2023/04/15 03:36:58;;;;;;;8.25;5.40;;;22.40;61.30;;;;;;4840170;29;20049;-65
2023/04/15 03:39:24;;;;;;;7.38;5.25;;;22.50;61.50;;;;;;4841155;29;20088;-65
2023/04/15 03:41:50;;;;;;;8.15;4.85;;;22.50;61.50;;;;;;4841370;29;20106;-66
2023/04/15 03:44:16;;;;;;;5.28;4.38;;;22.30;61.40;;;;;;4823890;29;20403;-65
2023/04/15 03:46:42;;;;;;;8.75;4.53;;;22.40;61.20;;;;;;4823917;29;20058;-65
2023/04/15 03:49:08;;;;;;;6.82;4.72;;;22.40;61.00;;;;;;4823561;29;20769;-65
2023/04/15 03:51:35;;;;;;;5.72;4.43;;;22.50;61.00;;;;;;4841195;29;20049;-65
2023/04/15 03:54:01;;;;;;;5.75;3.90;;;22.50;60.70;;;;;;4841276;29;20053;-65
2023/04/15 03:56:27;;;;;;;6.90;4.78;;;22.70;60.60;;;;;;4841582;29;20042;-65
2023/04/15 03:58:53;;;;;;;6.80;4.43;;;22.80;60.50;;;;;;4841145;29;20042;-65
2023/04/15 04:01:19;;;;;;;7.43;4.97;;;22.70;60.40;;;;;;4840856;29;20384;-65
2023/04/15 04:03:45;;;;;;;6.95;4.57;;;22.70;59.90;;;;;;4840978;29;20062;-70
2023/04/15 04:06:11;;;;;;;7.07;5.03;;;22.80;62.90;;;;;;4840829;29;20129;-69
2023/04/15 04:08:37;;;;;;;7.40;4.22;;;23.10;64.10;;;;;;4841008;29;20052;-70
2023/04/15 04:11:04;;;;;;;7.63;5.13;;;23.40;68.30;;;;;;4841015;29;20050;-70
2023/04/15 04:13:30;;;;;;;6.32;5.32;;;23.40;64.10;;;;;;4841025;29;20037;-72
2023/04/15 04:15:56;;;;;;;9.32;5.30;;;23.40;63.70;;;;;;4824637;29;20048;-70
2023/04/15 04:18:22;;;;;;;10.63;5.30;;;23.40;60.80;;;;;;4840792;29;20037;-69
2023/04/15 04:20:48;;;;;;;9.02;5.50;;;23.40;59.10;;;;;;4824932;29;20151;-65
2023/04/15 04:23:14;;;;;;;8.88;5.78;;;23.40;58.40;;;;;;4840207;29;20141;-65
2023/04/15 04:25:40;;;;;;;9.95;6.47;;;23.20;58.10;;;;;;4840633;29;20053;-65
2023/04/15 04:28:06;;;;;;;7.68;5.47;;;23.30;58.20;;;;;;4839310;29;20079;-65
2023/04/15 04:30:34;;;;;;;8.82;5.68;;;23.10;58.40;;;;;;4840456;29;20098;-64
2023/04/15 04:33:00;;;;;;;11.27;6.60;;;23.20;58.80;;;;;;4840568;29;20078;-65
2023/04/15 04:35:26;;;;;;;9.75;5.97;;;23.00;59.00;;;;;;4840807;29;20106;-65
2023/04/15 04:37:52;;;;;;;8.45;5.97;;;23.20;59.40;;;;;;4840484;29;20033;-65
2023/04/15 04:40:18;;;;;;;11.80;6.53;;;23.10;59.80;;;;;;4840411;29;20053;-64
2023/04/15 04:42:44;;;;;;;12.82;6.30;;;23.00;59.90;;;;;;4840319;29;20060;-63
2023/04/15 04:45:11;;;;;;;9.63;5.60;;;23.10;57.10;;;;;;4822986;29;20065;-63
2023/04/15 04:47:37;;;;;;;6.70;5.20;;;23.10;56.00;;;;;;4840344;29;20086;-62
2023/04/15 04:50:03;;;;;;;10.32;6.88;;;23.20;54.70;;;;;;4837719;29;20423;-65
2023/04/15 04:52:29;;;;;;;8.80;6.20;;;23.10;54.20;;;;;;4839640;29;20053;-65
2023/04/15 04:54:55;;;;;;;6.57;5.25;;;23.20;53.40;;;;;;4822553;29;20453;-64
2023/04/15 04:57:21;;;;;;;9.38;5.88;;;23.20;52.50;;;;;;4838055;29;20046;-65
2023/04/15 04:59:47;;;;;;;5.32;4.20;;;23.30;51.90;;;;;;4822722;29;20110;-63
2023/04/15 05:02:13;;;;;;;3.85;3.53;;;23.30;51.80;;;;;;4837921;29;20048;-64
2023/04/15 05:04:40;;;;;;;4.85;3.67;;;23.40;50.60;;;;;;4837429;29;20430;-65
2023/04/15 05:07:07;;;;;;;9.13;4.40;;;23.50;57.00;;;;;;4822444;29;20089;-65
2023/04/15 05:09:35;;;;;;;5.80;4.75;;;23.80;50.10;;;;;;4837655;29;20058;-64
2023/04/15 05:12:01;;;;;;;10.57;7.63;;;23.80;48.70;;;;;;4837978;29;20451;-64
2023/04/15 05:14:27;;;;;;;9.75;6.63;;;23.70;49.20;;;;;;4837651;29;20039;-65
2023/04/15 05:16:53;;;;;;;11.23;6.88;;;23.80;51.40;;;;;;4837991;29;20485;-65
2023/04/15 05:19:19;;;;;;;11.15;7.35;;;23.70;58.60;;;;;;4838141;29;20046;-65
2023/04/15 05:21:45;;;;;;;24.10;8.45;;;23.90;50.80;;;;;;4839457;29;20053;-64
2023/04/15 05:24:11;;;;;;;15.35;7.53;;;23.90;51.30;;;;;;4839955;29;20077;-64
2023/04/15 05:26:37;;;;;;;10.10;7.10;;;24.00;57.30;;;;;;4838793;29;20074;-65
2023/04/15 05:29:03;;;;;;;11.10;7.10;;;24.10;54.30;;;;;;4840174;29;20443;-64
2023/04/15 05:31:29;;;;;;;17.98;8.32;;;24.10;51.90;;;;;;4840026;29;20129;-65
2023/04/15 05:33:55;;;;;;;12.13;7.18;;;24.00;51.10;;;;;;4840025;29;20057;-64
2023/04/15 05:36:21;;;;;;;12.30;7.85;;;24.10;52.80;;;;;;4839838;29;20562;-65
2023/04/15 05:38:47;;;;;;;14.10;8.18;;;24.30;54.70;;;;;;4840085;29;20053;-65
2023/04/15 05:41:14;;;;;;;10.38;5.35;;;24.30;61.90;;;;;;4838644;29;20041;-65
2023/04/15 05:43:41;;;;;;;17.75;7.03;;;24.40;51.80;;;;;;4838389;29;20475;-65
2023/04/15 05:46:07;;;;;;;3.45;1.50;;;24.50;51.90;;;;;;4839913;29;20049;-65
2023/04/15 05:48:33;;;;;;;4.70;2.70;;;24.50;64.20;;;;;;4840087;29;20053;-65
2023/04/15 05:51:00;;;;;;;2.78;2.15;;;24.60;65.90;;;;;;4840234;29;20046;-66
2023/04/15 05:53:26;;;;;;;5.53;2.60;;;24.60;66.00;;;;;;4840058;29;20053;-65
2023/04/15 05:55:52;;;;;;;3.78;2.63;;;24.70;62.50;;;;;;4839887;29;20494;-64
2023/04/15 05:58:18;;;;;;;3.22;1.55;;;24.60;61.50;;;;;;4840131;29;20038;-64
2023/04/15 06:00:45;;;;;;;3.17;2.60;;;24.60;64.00;;;;;;4840010;29;20038;-65
2023/04/15 06:03:11;;;;;;;11.13;4.85;;;24.70;56.70;;;;;;4840459;29;20073;-64
2023/04/15 06:05:37;;;;;;;11.85;5.32;;;24.60;59.30;;;;;;4842898;29;20435;-65
2023/04/15 06:08:03;;;;;;;5.63;3.10;;;24.70;58.50;;;;;;4841914;29;20117;-63
2023/04/15 06:10:29;;;;;;;8.90;3.17;;;24.70;59.00;;;;;;4842997;29;20046;-64
2023/04/15 06:12:55;;;;;;;8.20;5.13;;;24.80;56.60;;;;;;4825729;29;20234;-64
2023/04/15 06:15:22;;;;;;;25.13;9.65;;;24.70;57.10;;;;;;4843039;29;20116;-63
2023/04/15 06:17:48;;;;;;;24.63;6.40;;;24.70;57.80;;;;;;4843219;29;20206;-64
2023/04/15 06:20:14;;;;;;;7.65;4.13;;;24.80;66.60;;;;;;4843153;29;20548;-64
2023/04/15 06:22:40;;;;;;;16.33;3.92;;;24.90;57.50;;;;;;4826398;29;20483;-67
2023/04/15 06:25:08;;;;;;;18.70;4.78;;;24.70;54.70;;;;;;4842966;29;20069;-64
2023/04/15 06:27:34;;;;;;;15.68;5.60;;;24.90;53.80;;;;;;4841076;29;20050;-63
2023/04/15 06:30:00;;;;;;;6.72;3.47;;;24.80;54.70;;;;;;4842627;29;20125;-63
2023/04/15 06:32:26;;;;;;;16.17;8.23;;;24.80;54.20;;;;;;4842748;29;20129;-65
2023/04/15 06:34:52;;;;;;;14.40;8.30;;;24.80;58.50;;;;;;4842796;29;20038;-66
2023/04/15 06:37:18;;;;;;;14.85;8.18;;;24.70;54.90;;;;;;4842764;29;20535;-66
2023/04/15 06:39:44;;;;;;;16.02;8.48;;;24.70;54.20;;;;;;4842449;29;20121;-65
2023/04/15 06:42:11;;;;;;;16.35;9.57;;;24.60;54.90;;;;;;4842612;29;20133;-65
2023/04/15 06:44:37;;;;;;;16.17;9.18;;;24.70;55.90;;;;;;4842604;29;20101;-65
2023/04/15 06:47:03;;;;;;;19.73;9.18;;;24.70;55.90;;;;;;4842485;29;20057;-65
2023/04/15 06:49:29;;;;;;;18.38;11.07;;;24.70;55.70;;;;;;4842323;29;20073;-66
2023/04/15 06:51:55;;;;;;;25.77;10.25;;;24.70;54.40;;;;;;4842478;29;20065;-64
2023/04/15 06:54:22;;;;;;;16.17;10.88;;;24.70;53.80;;;;;;4842134;29;20107;-64
2023/04/15 06:56:48;;;;;;;19.80;9.55;;;24.60;54.00;;;;;;4844683;29;20193;-65
2023/04/15 06:59:14;;;;;;;20.30;10.45;;;24.50;55.40;;;;;;4840947;29;20092;-65
2023/04/15 07:01:40;;;;;;;18.63;11.05;;;24.50;55.60;;;;;;4842412;29;20548;-64
2023/04/15 07:04:07;;;;;;;20.38;10.68;;;24.40;54.80;;;;;;4841283;29;20038;-64
2023/04/15 07:06:34;;;;;;;19.63;9.70;;;24.40;54.30;;;;;;4842352;29;20086;-64
2023/04/15 07:09:01;;;;;;;19.77;10.38;;;24.30;55.80;;;;;;4842306;29;20038;-65
2023/04/15 07:11:28;;;;;;;21.00;11.15;;;24.50;56.50;;;;;;4841987;29;20038;-62
2023/04/15 07:13:54;;;;;;;19.10;10.27;;;24.40;56.20;;;;;;4841605;29;20447;-64
2023/04/15 07:16:20;;;;;;;18.83;10.98;;;24.40;55.80;;;;;;4841972;29;20048;-63
2023/04/15 07:18:46;;;;;;;16.65;10.60;;;24.40;56.40;;;;;;4842158;29;20042;-64
2023/04/15 07:21:12;;;;;;;22.55;11.57;;;24.30;56.90;;;;;;4839763;29;20065;-65
2023/04/15 07:23:39;;;;;;;20.80;10.63;;;24.30;57.20;;;;;;4824492;29;20053;-66
2023/04/15 07:26:07;;;;;;;16.70;9.77;;;24.30;57.60;;;;;;4842076;29;20053;-64
2023/04/15 07:28:33;;;;;;;23.98;11.65;;;24.40;56.90;;;;;;4841930;29;20106;-64
2023/04/15 07:30:59;;;;;;;22.25;11.27;;;24.40;56.40;;;;;;4840586;29;20068;-66
2023/04/15 07:33:25;;;;;;;15.93;9.68;;;24.30;57.00;;;;;;4841779;29;20037;-65
2023/04/15 07:35:52;;;;;;;19.70;9.63;;;24.30;57.80;;;;;;4841395;29;20086;-66
2023/04/15 07:38:17;;;;;;;19.60;10.57;;;24.30;58.00;;;;;;4841349;29;20431;-65
2023/04/15 07:40:45;;;;;;;17.10;10.52;;;24.40;58.00;;;;;;4841493;29;20056;-67
2023/04/15 07:43:12;;;;;;;25.00;9.95;;;24.40;58.00;;;;;;4841772;29;20050;-66
2023/04/15 07:45:38;;;;;;;20.55;9.55;;;24.30;58.10;;;;;;4841679;29;20467;-67
2023/04/15 07:48:05;;;;;;;16.48;10.30;;;24.20;58.20;;;;;;4840110;29;20038;-67
2023/04/15 07:50:31;;;;;;;19.38;9.75;;;24.30;58.60;;;;;;4841357;29;20054;-67
2023/04/15 07:52:57;;;;;;;16.10;10.60;;;24.30;59.40;;;;;;4841383;29;20065;-67
2023/04/15 07:55:23;;;;;;;16.80;11.73;;;24.30;60.80;;;;;;4841209;29;20053;-65
2023/04/15 07:57:49;;;;;;;20.65;11.40;;;24.20;61.60;;;;;;4841347;29;20048;-65
2023/04/15 08:00:16;;;;;;;20.33;11.32;;;24.30;61.30;;;;;;4839752;29;20037;-66
2023/04/15 08:02:42;;;;;;;22.70;12.73;;;24.30;61.60;;;;;;4841293;29;20049;-65
2023/04/15 08:05:09;;;;;;;24.90;13.02;;;24.20;62.50;;;;;;4841279;29;20054;-64
2023/04/15 08:07:37;;;;;;;25.45;13.88;;;24.30;63.30;;;;;;4841635;29;20483;-65
2023/04/15 08:10:03;;;;;;;18.38;11.57;;;24.20;62.20;;;;;;4841669;29;20045;-65
2023/04/15 08:12:30;;;;;;;15.80;8.77;;;24.10;61.30;;;;;;4841616;29;20510;-65
2023/04/15 08:14:56;;;;;;;20.95;11.40;;;24.30;52.80;;;;;;4841378;29;20050;-64
2023/04/15 08:17:23;;;;;;;20.45;11.20;;;24.20;50.10;;;;;;4841083;29;20041;-64
2023/04/15 08:19:49;;;;;;;13.68;8.25;;;24.30;50.00;;;;;;4840559;29;20080;-65
2023/04/15 08:22:15;;;;;;;15.00;10.40;;;24.30;48.60;;;;;;4840597;29;20053;-65
2023/04/15 08:24:41;;;;;;;31.98;12.93;;;24.20;48.30;;;;;;4840381;29;20057;-65
2023/04/15 08:27:07;;;;;;;17.73;11.23;;;24.30;73.00;;;;;;4855079;29;20395;-65
2023/04/15 08:29:34;;;;;;;21.08;11.25;;;24.40;73.30;;;;;;4857283;29;20120;-64
2023/04/15 08:32:01;;;;;;;16.23;9.90;;;24.50;72.80;;;;;;4840520;29;20058;-65
2023/04/15 08:34:27;;;;;;;19.35;10.60;;;24.40;67.50;;;;;;4840581;29;20478;-65
2023/04/15 08:36:53;;;;;;;23.90;10.85;;;24.50;65.60;;;;;;4840695;29;20098;-64
2023/04/15 08:39:19;;;;;;;20.05;11.50;;;24.40;64.20;;;;;;4840498;29;20046;-64
2023/04/15 08:41:59;;;;;;;23.05;11.10;;;24.30;63.30;;;;;;4840647;29;20152;-66
2023/04/15 08:44:28;;;;;;;24.40;10.40;;;24.50;61.90;;;;;;4840798;29;20049;-63
2023/04/15 08:46:56;;;;;;;25.45;13.20;;;24.50;63.40;;;;;;4840645;29;20046;-63
2023/04/15 08:49:26;;;;;;;25.73;13.88;;;24.50;56.30;;;;;;4840617;29;20475;-64
2023/04/15 08:51:52;;;;;;;18.92;11.43;;;24.40;51.80;;;;;;4840417;29;20099;-63
2023/04/15 08:54:18;;;;;;;20.27;11.38;;;24.30;59.10;;;;;;4842658;29;20170;-65
2023/04/15 08:56:45;;;;;;;16.85;9.48;;;24.30;60.90;;;;;;4840504;29;20046;-65
2023/04/15 08:59:11;;;;;;;23.20;11.18;;;24.40;64.20;;;;;;4839103;29;20029;-64
2023/04/15 09:01:37;;;;;;;23.52;11.52;;;24.40;62.70;;;;;;4822644;29;20126;-62
2023/04/15 09:04:06;;;;;;;17.98;9.68;;;24.30;61.70;;;;;;4840140;29;20046;-64
2023/04/15 09:06:33;;;;;;;26.23;13.13;;;24.40;61.50;;;;;;4840331;29;20050;-64
2023/04/15 09:08:59;;;;;;;17.65;10.73;;;24.50;59.90;;;;;;4838854;29;20046;-67
2023/04/15 09:11:25;;;;;;;22.48;12.52;;;24.50;61.80;;;;;;4840200;29;20046;-66
2023/04/15 09:13:51;;;;;;;21.30;12.93;;;24.40;61.10;;;;;;4823082;29;20044;-64
2023/04/15 09:16:18;;;;;;;25.88;13.82;;;24.40;62.30;;;;;;4840082;29;20057;-65
2023/04/15 09:18:44;;;;;;;26.33;13.60;;;24.30;63.40;;;;;;4840440;29;20398;-64
2023/04/15 09:21:13;;;;;;;14.27;8.77;;;24.50;59.10;;;;;;4839899;29;20046;-64
2023/04/15 09:23:59;;;;;;;21.20;11.18;;;24.50;53.20;;;;;;4840167;29;20461;-65
2023/04/15 09:26:36;;;;;;;22.35;11.07;;;24.60;55.00;;;;;;4822813;29;20061;-64
2023/04/15 09:29:08;;;;;;;25.35;11.63;;;24.60;50.50;;;;;;4840402;29;20064;-64
2023/04/15 09:31:35;;;;;;;24.20;10.55;;;24.70;58.40;;;;;;4839832;29;20041;-64
2023/04/15 09:34:02;;;;;;;24.38;13.98;;;24.70;59.00;;;;;;4840125;29;20145;-65
2023/04/15 09:36:29;;;;;;;23.13;12.75;;;24.90;59.30;;;;;;4840129;29;20142;-64
2023/04/15 09:38:57;;;;;;;21.52;13.52;;;24.70;59.30;;;;;;4842927;29;20038;-63
2023/04/15 09:41:24;;;;;;;15.88;8.93;;;24.70;50.50;;;;;;4843346;29;20040;-64
2023/04/15 09:43:50;;;;;;;12.02;7.63;;;24.70;49.60;;;;;;4843773;29;20113;-64
2023/04/15 09:46:16;;;;;;;15.85;8.63;;;24.80;50.90;;;;;;4842193;29;20052;-65
2023/04/15 09:48:42;;;;;;;18.65;11.93;;;24.80;48.10;;;;;;4843466;29;20449;-64
2023/04/15 09:51:08;;;;;;;15.63;8.50;;;24.90;49.30;;;;;;4843038;29;20049;-64
2023/04/15 09:53:35;;;;;;;14.23;7.60;;;24.70;51.30;;;;;;4843102;29;20070;-64
2023/04/15 09:56:02;;;;;;;17.95;9.73;;;24.80;56.80;;;;;;4843008;29;20565;-65
2023/04/15 09:58:31;;;;;;;19.48;10.70;;;24.90;58.40;;;;;;4843271;29;20038;-64
2023/04/15 10:00:58;;;;;;;18.13;9.60;;;24.90;58.60;;;;;;4842840;29;20042;-64
2023/04/15 10:03:27;;;;;;;24.90;14.70;;;25.00;52.80;;;;;;4843198;29;20046;-64
2023/04/15 10:05:55;;;;;;;18.20;12.10;;;25.20;53.10;;;;;;4842960;29;20062;-63
2023/04/15 10:08:24;;;;;;;14.55;8.25;;;25.30;47.20;;;;;;4842728;29;20038;-63
2023/04/15 10:10:53;;;;;;;24.73;13.30;;;25.30;46.80;;;;;;4841937;29;20042;-61
2023/04/15 10:13:36;;;;;;;10.93;8.48;;;25.20;46.70;;;;;;4842963;29;20042;-63
2023/04/15 10:16:10;;;;;;;14.32;10.18;;;25.20;47.90;;;;;;4825557;29;20070;-64
2023/04/15 10:18:57;;;;;;;19.25;13.35;;;25.30;51.50;;;;;;4841596;29;20321;-62
2023/04/15 10:21:23;;;;;;;32.03;19.88;;;25.30;47.60;;;;;;4842638;29;20045;-64
2023/04/15 10:23:50;;;;;;;18.38;10.52;;;25.30;48.00;;;;;;4853317;29;20081;-63
2023/04/15 10:26:16;;;;;;;24.38;13.02;;;25.20;47.00;;;;;;4861596;29;20051;-60
2023/04/15 10:28:43;;;;;;;20.50;10.57;;;25.40;55.10;;;;;;4854125;29;20074;-62
2023/04/15 10:31:16;;;;;;;17.40;9.73;;;25.90;59.20;;;;;;4841413;29;20128;-61
2023/04/15 10:33:44;;;;;;;17.60;10.68;;;26.10;48.50;;;;;;4842765;29;20431;-63
2023/04/15 10:36:11;;;;;;;16.77;10.55;;;26.00;49.80;;;;;;4844195;29;20069;-63
2023/04/15 10:38:42;;;;;;;17.77;9.45;;;25.80;51.60;;;;;;4842592;29;20038;-61
2023/04/15 10:41:26;;;;;;;13.45;9.45;;;26.00;52.30;;;;;;4825018;29;20089;-62
2023/04/15 10:43:59;;;;;;;16.85;9.07;;;25.80;50.00;;;;;;4810076;29;20058;-60
2023/04/15 10:46:41;;;;;;;;;;;25.80;48.40;;;;;;4845215;29;20060;-63
2023/04/15 10:49:24;;;;;;;16.63;11.40;;;25.80;49.50;;;;;;4845657;29;19916;-61
2023/04/15 10:51:51;;;;;;;;;;;25.90;51.40;;;;;;4845391;29;20056;-63
2023/04/15 10:54:23;;;;;;;20.95;10.90;;;25.90;50.10;;;;;;4848020;29;19916;-61
2023/04/15 10:57:07;;;;;;;19.20;12.47;;;26.00;60.10;;;;;;4845835;29;20033;-62
2023/04/15 10:59:57;;;;;;;21.77;10.73;;;26.00;61.50;;;;;;4824031;29;20046;-62
2023/04/15 11:02:39;;;;;;;19.00;11.32;;;25.90;58.90;;;;;;4822361;29;20475;-64
2023/04/15 11:05:06;;;;;;;13.83;9.43;;;25.90;58.60;;;;;;4823823;29;20046;-63
2023/04/15 11:07:50;;;;;;;18.60;10.00;;;25.80;57.80;;;;;;4856126;29;20136;-63
2023/04/15 11:10:25;;;;;;;16.20;9.50;;;25.90;57.30;;;;;;4860383;29;20410;-62
2023/04/15 11:13:02;;;;;;;15.63;6.18;;;25.90;57.40;;;;;;4860420;29;20499;-62
2023/04/15 11:15:45;;;;;;;12.90;8.55;;;25.70;57.30;;;;;;4860631;29;20080;-63
2023/04/15 11:18:23;;;;;;;19.33;7.05;;;25.70;57.10;;;;;;4842733;29;20136;-63
2023/04/15 11:20:56;;;;;;;18.30;9.80;;;25.60;57.20;;;;;;4860168;29;20040;-63
2023/04/15 11:23:33;;;;;;;14.27;8.35;;;25.60;57.00;;;;;;4853310;29;20049;-63
2023/04/15 11:26:01;;;;;;;15.57;8.73;;;25.70;57.00;;;;;;4839336;29;20058;-63
2023/04/15 11:28:29;;;;;;;7.90;4.28;;;25.60;57.10;;;;;;4841693;29;20045;-63
2023/04/15 11:30:56;;;;;;;20.92;13.05;;;25.70;57.30;;;;;;4841695;29;20113;-63
2023/04/15 11:33:23;;;;;;;11.77;6.07;;;25.60;55.40;;;;;;4841751;29;20038;-64
2023/04/15 11:35:51;;;;;;;14.77;8.82;;;25.50;57.10;;;;;;4827121;29;20039;-63
2023/04/15 11:38:17;;;;;;;15.90;8.05;;;25.60;57.50;;;;;;4823289;29;20568;-62
2023/04/15 11:40:45;;;;;;;10.80;6.97;;;25.50;57.10;;;;;;4823201;29;20127;-63
2023/04/15 11:43:14;;;;;;;17.65;10.98;;;25.60;57.10;;;;;;4823713;29;20118;-61
2023/04/15 11:46:07;;;;;;;14.02;9.90;;;25.50;57.00;;;;;;4823398;29;20133;-63
2023/04/15 11:48:35;;;;;;;14.88;7.90;;;25.40;57.00;;;;;;4784601;30;20132;-62
2023/04/15 11:51:03;;;;;;;12.80;7.93;;;25.40;57.20;;;;;;4794127;29;20057;-63
2023/04/15 11:53:46;;;;;;;12.90;6.50;;;25.30;57.50;;;;;;4802749;29;20483;-61
2023/04/15 11:56:19;;;;;;;16.42;7.75;;;25.30;60.80;;;;;;4802945;29;20035;-61
2023/04/15 11:58:45;;;;;;;4.00;2.95;;;25.30;60.90;;;;;;4802231;29;20533;-64
2023/04/15 12:01:11;;;;;;;13.93;7.80;;;25.30;59.90;;;;;;4802237;29;20068;-64
2023/04/15 12:03:42;;;;;;;16.95;8.10;;;25.30;59.40;;;;;;4802296;29;20593;-63
2023/04/15 12:06:22;;;;;;;13.25;9.70;;;25.40;58.80;;;;;;4802052;29;20057;-64
2023/04/15 12:08:48;;;;;;;8.10;4.65;;;25.20;58.10;;;;;;4802328;29;20043;-64
2023/04/15 12:11:20;;;;;;;13.18;9.00;;;25.30;56.80;;;;;;4802004;29;20053;-64
2023/04/15 12:13:48;;;;;;;13.10;7.75;;;25.20;57.80;;;;;;4802423;29;20046;-64
2023/04/15 12:16:20;;;;;;;11.05;8.52;;;25.30;57.90;;;;;;4802035;29;20035;-64
2023/04/15 12:18:49;;;;;;;;;;;25.30;58.10;;;;;;4802774;29;20054;-65
2023/04/15 12:21:21;;;;;;;13.15;8.50;;;25.20;54.20;;;;;;4801928;29;20372;-64
2023/04/15 12:24:00;;;;;;;8.13;5.53;;;25.00;55.40;;;;;;4802074;29;20050;-64
2023/04/15 12:26:28;;;;;;;11.88;7.75;;;25.20;57.80;;;;;;4821755;29;20133;-63
2023/04/15 12:29:03;;;;;;;11.55;7.95;;;25.10;57.70;;;;;;4822842;29;20053;-65
2023/04/15 12:31:29;;;;;;;14.50;8.23;;;25.10;57.80;;;;;;4826429;29;20030;-62
2023/04/15 12:33:57;;;;;;;11.18;7.38;;;25.20;57.60;;;;;;4840728;29;20372;-65
2023/04/15 12:36:23;;;;;;;14.55;10.27;;;25.10;57.00;;;;;;4841911;29;20052;-63
2023/04/15 12:38:50;;;;;;;14.27;6.28;;;24.90;55.40;;;;;;4857985;29;20406;-64
2023/04/15 12:41:16;;;;;;;13.00;7.43;;;25.10;57.60;;;;;;4853075;29;20076;-65
2023/04/15 12:43:45;;;;;;;12.18;7.60;;;25.10;57.40;;;;;;4839524;29;20030;-65